createdAt,value
2022-09-16T00:00:29.987Z,1.77
2022-09-16T00:02:57.237Z,1.33
2022-09-16T00:05:24.249Z,1.40
2022-09-16T00:07:50.987Z,1.35
2022-09-16T00:10:17.632Z,1.48
2022-09-16T00:12:44.280Z,1.20
2022-09-16T00:15:11.364Z,1.15
2022-09-16T00:17:38.471Z,1.48
2022-09-16T00:20:06.466Z,1.27
2022-09-16T00:22:33.387Z,1.42
2022-09-16T00:25:00.025Z,1.45
2022-09-16T00:27:26.750Z,1.10
2022-09-16T00:29:53.705Z,1.48
2022-09-16T00:32:20.269Z,1.10
2022-09-16T00:34:46.842Z,1.60
2022-09-16T00:37:13.278Z,1.45
2022-09-16T00:39:39.752Z,1.60
2022-09-16T00:42:11.954Z,1.73
2022-09-16T00:44:59.619Z,1.60
2022-09-16T00:47:43.237Z,1.77
2022-09-16T00:50:10.063Z,1.90
2022-09-16T00:52:37.884Z,1.90
2022-09-16T00:55:08.727Z,1.98
2022-09-16T00:57:36.062Z,1.90
2022-09-16T01:00:05.793Z,1.95
2022-09-16T01:02:32.412Z,1.92
2022-09-16T01:05:22.333Z,2.15
2022-09-16T01:07:51.202Z,1.90
2022-09-16T01:10:21.172Z,1.95
2022-09-16T01:12:57.275Z,2.03
2022-09-16T01:15:31.968Z,1.85
2022-09-16T01:18:04.606Z,1.75
2022-09-16T01:20:58.875Z,2.03
2022-09-16T01:24:16.616Z,1.73
2022-09-16T01:26:58.194Z,1.65
2022-09-16T01:29:41.804Z,1.65
2022-09-16T01:32:17.252Z,1.38
2022-09-16T01:35:10.665Z,1.55
2022-09-16T01:37:47.270Z,1.60
2022-09-16T01:40:21.010Z,1.45
2022-09-16T01:43:10.505Z,1.65
2022-09-16T01:45:48.830Z,1.50
2022-09-16T01:48:37.423Z,2.08
2022-09-16T01:51:15.890Z,1.60
2022-09-16T01:53:51.622Z,1.42
2022-09-16T01:56:28.859Z,1.48
2022-09-16T01:59:17.057Z,1.60
2022-09-16T02:01:57.501Z,1.60
2022-09-16T02:04:29.840Z,1.58
2022-09-16T02:06:59.792Z,1.90
2022-09-16T02:09:32.615Z,1.80
2022-09-16T02:12:05.584Z,1.33
2022-09-16T02:14:39.494Z,1.88
2022-09-16T02:17:10.356Z,1.50
2022-09-16T02:20:06.373Z,1.88
2022-09-16T02:22:39.219Z,1.65
2022-09-16T02:25:10.431Z,1.48
2022-09-16T02:27:39.258Z,1.60
2022-09-16T02:30:09.850Z,1.80
2022-09-16T02:32:42.134Z,2.00
2022-09-16T02:35:12.300Z,1.83
2022-09-16T02:37:51.267Z,2.17
2022-09-16T02:40:26.946Z,2.00
2022-09-16T02:42:53.768Z,2.03
2022-09-16T02:45:26.580Z,1.98
2022-09-16T02:48:04.977Z,2.30
2022-09-16T02:50:52.616Z,2.25
2022-09-16T02:53:40.675Z,2.60
2022-09-16T02:56:31.360Z,2.22
2022-09-16T02:58:58.246Z,2.50
2022-09-16T03:01:25.856Z,2.90
2022-09-16T03:03:55.172Z,2.95
2022-09-16T03:06:25.022Z,2.72
2022-09-16T03:08:54.122Z,2.55
2022-09-16T03:11:38.207Z,2.30
2022-09-16T03:14:21.450Z,2.78
2022-09-16T03:17:03.091Z,2.95
2022-09-16T03:20:03.655Z,3.13
2022-09-16T03:22:42.143Z,3.00
2022-09-16T03:25:39.567Z,3.10
2022-09-16T03:28:16.850Z,3.50
2022-09-16T03:31:08.880Z,2.75
2022-09-16T03:34:12.690Z,2.90
2022-09-16T03:36:52.590Z,3.20
2022-09-16T03:39:19.233Z,3.55
2022-09-16T03:41:45.919Z,2.70
2022-09-16T03:44:12.354Z,2.97
2022-09-16T03:46:39.503Z,2.80
2022-09-16T03:49:06.043Z,2.85
2022-09-16T03:51:32.636Z,2.70
2022-09-16T03:53:59.151Z,2.80
2022-09-16T03:56:25.626Z,2.55
2022-09-16T03:58:52.385Z,2.95
2022-09-16T04:01:19.041Z,2.78
2022-09-16T04:03:45.585Z,2.30
2022-09-16T04:06:12.039Z,2.70
2022-09-16T04:08:39.770Z,2.70
2022-09-16T04:11:07.052Z,2.55
2022-09-16T04:13:35.220Z,2.17
2022-09-16T04:16:03.985Z,2.10
2022-09-16T04:18:31.992Z,2.45
2022-09-16T04:20:59.962Z,2.75
2022-09-16T04:23:27.752Z,2.25
2022-09-16T04:25:59.067Z,2.72
2022-09-16T04:28:26.105Z,2.50
2022-09-16T04:30:52.769Z,2.22
2022-09-16T04:33:19.705Z,2.10
2022-09-16T04:35:46.261Z,2.10
2022-09-16T04:38:12.717Z,1.95
2022-09-16T04:40:40.091Z,2.28
2022-09-16T04:43:06.716Z,2.50
2022-09-16T04:45:33.179Z,2.42
2022-09-16T04:47:59.649Z,2.40
2022-09-16T04:50:27.623Z,2.00
2022-09-16T04:52:54.139Z,2.00
2022-09-16T04:55:23.301Z,2.28
2022-09-16T04:57:50.842Z,2.15
2022-09-16T05:00:17.396Z,1.80
2022-09-16T05:02:45.688Z,2.20
2022-09-16T05:05:12.532Z,1.85
2022-09-16T05:07:39.057Z,1.83
2022-09-16T05:10:06.067Z,2.20
2022-09-16T05:12:32.540Z,1.80
2022-09-16T05:14:59.069Z,1.92
2022-09-16T05:17:49.379Z,2.05
2022-09-16T05:20:12.686Z,1.80
2022-09-16T05:22:39.469Z,2.05
2022-09-16T05:25:06.488Z,1.70
2022-09-16T05:27:34.148Z,1.95
2022-09-16T05:30:00.591Z,1.60
2022-09-16T05:32:27.510Z,2.03
2022-09-16T05:34:54.783Z,1.75
2022-09-16T05:37:21.295Z,1.70
2022-09-16T05:39:47.791Z,1.90
2022-09-16T05:42:14.368Z,1.85
2022-09-16T05:44:40.834Z,1.95
2022-09-16T05:47:07.327Z,2.05
2022-09-16T05:49:33.812Z,1.80
2022-09-16T05:52:00.289Z,1.80
2022-09-16T05:54:26.723Z,1.58
2022-09-16T05:56:53.212Z,1.77
2022-09-16T05:59:19.913Z,1.70
2022-09-16T06:01:46.696Z,1.88
2022-09-16T06:04:15.206Z,1.65
2022-09-16T06:06:46.879Z,1.60
2022-09-16T06:09:17.989Z,1.88
2022-09-16T06:11:46.861Z,1.63
2022-09-16T06:14:14.993Z,1.50
2022-09-16T06:16:41.926Z,1.40
2022-09-16T06:19:13.112Z,1.67
2022-09-16T06:21:40.734Z,1.47
2022-09-16T06:24:08.855Z,1.48
2022-09-16T06:26:40.340Z,1.55
2022-09-16T06:29:07.160Z,1.30
2022-09-16T06:31:35.356Z,1.70
2022-09-16T06:34:02.469Z,1.60
2022-09-16T06:36:34.892Z,1.48
2022-09-16T06:39:01.667Z,1.80
2022-09-16T06:41:28.438Z,1.80
2022-09-16T06:43:58.078Z,1.70
2022-09-16T06:46:26.702Z,1.73
2022-09-16T06:48:58.515Z,1.70
2022-09-16T06:51:29.250Z,1.77
2022-09-16T06:54:00.787Z,1.40
2022-09-16T06:56:27.403Z,1.50
2022-09-16T06:58:55.816Z,2.10
2022-09-16T07:01:25.021Z,1.52
2022-09-16T07:03:53.462Z,1.60
2022-09-16T07:06:22.147Z,1.70
2022-09-16T07:08:49.188Z,1.60
2022-09-16T07:11:20.931Z,1.58
2022-09-16T07:13:49.166Z,1.70
2022-09-16T07:16:18.546Z,1.58
2022-09-16T07:18:46.872Z,1.48
2022-09-16T07:21:15.658Z,1.52
2022-09-16T07:23:43.388Z,1.40
2022-09-16T07:26:17.671Z,1.35
2022-09-16T07:28:48.523Z,2.08
2022-09-16T07:31:19.233Z,1.80
2022-09-16T07:33:49.621Z,1.60
2022-09-16T07:36:18.863Z,1.85
2022-09-16T07:38:45.627Z,1.60
2022-09-16T07:41:18.544Z,2.08
2022-09-16T07:43:45.855Z,1.70
2022-09-16T07:46:13.883Z,2.13
2022-09-16T07:48:40.774Z,2.00
2022-09-16T07:51:10.544Z,2.35
2022-09-16T07:53:37.194Z,1.98
2022-09-16T07:56:06.311Z,1.90
2022-09-16T07:58:32.954Z,2.00
2022-09-16T08:01:04.149Z,1.90
2022-09-16T08:06:04.296Z,1.83
2022-09-16T08:08:31.421Z,2.20
2022-09-16T08:10:59.426Z,2.00
2022-09-16T08:13:27.653Z,2.03
2022-09-16T08:15:54.461Z,2.13
2022-09-16T08:18:21.512Z,2.13
2022-09-16T08:20:48.112Z,2.00
2022-09-16T08:23:14.691Z,1.63
2022-09-16T08:25:42.345Z,1.80
2022-09-16T08:28:17.089Z,1.50
2022-09-16T08:30:44.231Z,1.50
2022-09-16T08:33:10.888Z,1.50
2022-09-16T08:35:37.405Z,1.58
2022-09-16T08:38:06.857Z,1.58
2022-09-16T08:40:36.350Z,1.25
2022-09-16T08:43:13.306Z,1.33
2022-09-16T08:45:50.211Z,1.52
2022-09-16T08:48:48.520Z,1.70
2022-09-16T08:51:19.151Z,1.55
2022-09-16T08:53:57.692Z,1.67
2022-09-16T08:56:27.522Z,1.30
2022-09-16T08:58:57.450Z,2.00
2022-09-16T09:01:50.463Z,1.52
2022-09-16T09:04:17.381Z,1.58
2022-09-16T09:06:59.339Z,1.67
2022-09-16T09:09:28.536Z,1.38
2022-09-16T09:12:31.054Z,1.20
2022-09-16T09:15:03.959Z,1.42
2022-09-16T09:17:48.931Z,1.77
2022-09-16T09:20:50.805Z,1.33
2022-09-16T09:23:58.434Z,1.15
2022-09-16T09:26:42.625Z,1.55
2022-09-16T09:29:18.173Z,1.30
2022-09-16T09:32:06.258Z,1.48
2022-09-16T09:34:52.057Z,1.88
2022-09-16T09:37:42.962Z,1.35
2022-09-16T09:40:49.699Z,1.60
2022-09-16T09:43:24.659Z,1.58
2022-09-16T09:45:58.483Z,1.35
2022-09-16T09:48:37.962Z,1.70
2022-09-16T09:51:32.471Z,1.55
2022-09-16T09:54:06.116Z,1.60
2022-09-16T09:56:40.937Z,1.33
2022-09-16T09:59:31.093Z,1.45
2022-09-16T10:01:58.744Z,1.75
2022-09-16T10:04:25.377Z,1.65
2022-09-16T10:06:54.598Z,2.15
2022-09-16T10:09:22.640Z,1.42
2022-09-16T10:11:52.526Z,1.63
2022-09-16T10:14:31.281Z,1.40
2022-09-16T10:17:02.878Z,1.40
2022-09-16T10:19:32.777Z,1.60
2022-09-16T10:22:21.613Z,1.65
2022-09-16T10:24:56.387Z,1.40
2022-09-16T10:27:29.624Z,1.50
2022-09-16T10:30:16.492Z,1.38
2022-09-16T10:32:54.342Z,1.95
2022-09-16T10:35:24.365Z,1.77
2022-09-16T10:37:59.699Z,1.52
2022-09-16T10:40:27.077Z,1.52
2022-09-16T10:42:59.727Z,1.52
2022-09-16T10:45:27.855Z,1.40
2022-09-16T10:48:19.848Z,1.52
2022-09-16T10:50:57.203Z,2.38
2022-09-16T10:53:31.296Z,1.30
2022-09-16T10:56:04.282Z,1.52
2022-09-16T10:58:31.101Z,1.30
2022-09-16T11:01:03.594Z,1.13
2022-09-16T11:03:40.658Z,1.55
2022-09-16T11:06:37.734Z,1.42
2022-09-16T11:09:31.485Z,1.40
2022-09-16T11:12:17.413Z,1.27
2022-09-16T11:15:22.769Z,1.50
2022-09-16T11:17:55.718Z,1.50
2022-09-16T11:20:44.059Z,1.52
2022-09-16T11:23:16.796Z,1.75
2022-09-16T11:26:36.855Z,1.50
2022-09-16T11:29:27.413Z,1.45
2022-09-16T11:32:16.069Z,2.10
2022-09-16T11:35:05.812Z,1.27
2022-09-16T11:38:07.862Z,1.60
2022-09-16T11:40:58.139Z,1.75
2022-09-16T11:43:55.660Z,1.70
2022-09-16T11:46:49.183Z,1.30
2022-09-16T11:49:24.798Z,1.77
2022-09-16T11:52:04.984Z,1.20
2022-09-16T11:54:58.417Z,1.52
2022-09-16T11:57:29.759Z,1.58
2022-09-16T12:00:00.816Z,1.45
2022-09-16T12:02:42.685Z,0.93
2022-09-16T12:05:18.916Z,1.27
2022-09-16T12:08:02.979Z,1.20
2022-09-16T12:10:46.941Z,1.20
2022-09-16T12:13:20.770Z,1.50
2022-09-16T12:16:02.184Z,1.33
2022-09-16T12:18:33.244Z,1.40
2022-09-16T12:21:14.383Z,1.20
2022-09-16T12:23:45.354Z,1.42
2022-09-16T12:26:24.095Z,1.60
2022-09-16T12:29:03.931Z,1.40
2022-09-16T12:31:51.581Z,1.50
2022-09-16T12:34:26.616Z,1.27
2022-09-16T12:37:01.047Z,1.27
2022-09-16T12:39:28.767Z,1.42
2022-09-16T12:42:07.026Z,1.60
2022-09-16T12:44:52.014Z,1.10
2022-09-16T12:47:21.307Z,0.90
2022-09-16T12:50:09.436Z,1.00
2022-09-16T12:52:46.628Z,1.20
2022-09-16T12:55:35.355Z,1.10
2022-09-16T12:58:22.519Z,1.30
2022-09-16T13:01:30.253Z,1.10
2022-09-16T13:04:04.569Z,1.48
2022-09-16T13:06:36.685Z,1.00
2022-09-16T13:09:23.393Z,1.75
2022-09-16T13:15:07.094Z,1.45
2022-09-16T13:17:37.206Z,1.38
2022-09-16T13:20:33.443Z,1.38
2022-09-16T13:23:08.821Z,1.42
2022-09-16T13:25:55.003Z,1.33
2022-09-16T13:28:26.712Z,1.30
2022-09-16T13:30:53.477Z,1.25
2022-09-16T13:33:29.228Z,1.63
2022-09-16T13:36:22.530Z,1.40
2022-09-16T13:39:00.590Z,1.40
2022-09-16T13:41:37.702Z,1.02
2022-09-16T13:44:39.852Z,0.70
2022-09-16T13:47:09.121Z,0.93
2022-09-16T13:49:44.897Z,0.85
2022-09-16T13:52:13.324Z,0.93
2022-09-16T13:55:09.575Z,1.23
2022-09-16T13:57:53.189Z,1.42
2022-09-16T14:01:01.138Z,1.10
2022-09-16T14:03:34.195Z,1.08
2022-09-16T14:06:26.891Z,1.50
2022-09-16T14:08:53.469Z,1.58
2022-09-16T14:11:35.734Z,1.30
2022-09-16T14:14:07.651Z,1.05
2022-09-16T14:16:39.910Z,1.05
2022-09-16T14:19:18.802Z,1.00
2022-09-16T14:21:47.901Z,0.90
2022-09-16T14:24:19.465Z,1.10
2022-09-16T14:26:57.220Z,0.93
2022-09-16T14:29:27.122Z,1.10
2022-09-16T14:31:55.668Z,1.20
2022-09-16T14:34:30.824Z,1.00
2022-09-16T14:36:57.978Z,1.20
2022-09-16T14:39:26.929Z,1.17
2022-09-16T14:42:16.016Z,0.98
2022-09-16T14:44:46.696Z,1.20
2022-09-16T14:47:50.539Z,1.10
2022-09-16T14:50:25.300Z,1.17
2022-09-16T14:53:00.747Z,1.00
2022-09-16T14:55:30.989Z,1.05
2022-09-16T14:57:58.781Z,0.82
2022-09-16T15:00:47.889Z,0.90
2022-09-16T15:03:31.181Z,1.00
2022-09-16T15:06:04.944Z,1.20
2022-09-16T15:08:55.804Z,0.90
2022-09-16T15:11:47.123Z,0.90
2022-09-16T15:14:13.521Z,1.00
2022-09-16T15:16:44.211Z,1.30
2022-09-16T15:19:24.977Z,0.90
2022-09-16T15:21:52.165Z,0.90
2022-09-16T15:24:27.673Z,0.90
2022-09-16T15:26:54.937Z,1.10
2022-09-16T15:29:24.388Z,1.30
2022-09-16T15:31:51.761Z,1.00
2022-09-16T15:34:21.092Z,1.10
2022-09-16T15:36:56.335Z,1.00
2022-09-16T15:39:30.149Z,0.90
2022-09-16T15:42:26.277Z,1.02
2022-09-16T15:44:56.517Z,1.10
2022-09-16T15:47:33.138Z,1.30
2022-09-16T15:50:06.583Z,1.45
2022-09-16T15:52:36.127Z,1.10
2022-09-16T15:55:05.241Z,1.30
2022-09-16T15:57:38.811Z,1.23
2022-09-16T16:00:16.177Z,1.27
2022-09-16T16:03:05.227Z,1.25
2022-09-16T16:05:32.995Z,1.08
2022-09-16T16:08:09.667Z,1.50
2022-09-16T16:10:36.512Z,1.13
2022-09-16T16:13:04.683Z,1.10
2022-09-16T16:15:35.013Z,1.02
2022-09-16T16:18:05.026Z,1.10
2022-09-16T16:20:34.083Z,1.05
2022-09-16T16:23:02.266Z,0.95
2022-09-16T16:25:29.521Z,1.48
2022-09-16T16:27:58.225Z,1.25
2022-09-16T16:30:24.686Z,1.17
2022-09-16T16:32:51.151Z,0.90
2022-09-16T16:35:17.638Z,1.25
2022-09-16T16:37:46.755Z,1.20
2022-09-16T16:40:14.986Z,1.02
2022-09-16T16:42:43.576Z,1.15
2022-09-16T16:45:13.184Z,1.50
2022-09-16T16:47:40.116Z,2.28
2022-09-16T16:50:08.313Z,2.17
2022-09-16T16:52:34.801Z,1.83
2022-09-16T16:55:01.263Z,1.30
2022-09-16T16:57:27.922Z,1.17
2022-09-16T16:59:54.389Z,1.25
2022-09-16T17:02:20.994Z,1.10
2022-09-16T17:04:47.527Z,1.38
2022-09-16T17:07:25.845Z,1.27
2022-09-16T17:09:56.911Z,1.48
2022-09-16T17:12:23.410Z,1.30
2022-09-16T17:14:49.885Z,1.50
2022-09-16T17:17:16.423Z,1.30
2022-09-16T17:19:42.898Z,1.23
2022-09-16T17:22:09.642Z,1.50
2022-09-16T17:24:36.603Z,1.30
2022-09-16T17:27:04.150Z,1.30
2022-09-16T17:29:30.644Z,1.20
2022-09-16T17:31:57.350Z,1.73
2022-09-16T17:34:26.402Z,1.70
2022-09-16T17:36:53.338Z,1.63
2022-09-16T17:39:21.522Z,1.50
2022-09-16T17:41:49.254Z,1.48
2022-09-16T17:44:17.040Z,1.70
2022-09-16T17:46:44.773Z,1.90
2022-09-16T17:49:20.230Z,1.48
2022-09-16T17:51:46.785Z,1.50
2022-09-16T17:54:13.961Z,1.50
2022-09-16T17:56:44.881Z,1.80
2022-09-16T17:59:15.665Z,1.55
2022-09-16T18:01:42.194Z,1.90
2022-09-16T18:04:09.053Z,1.70
2022-09-16T18:06:41.663Z,1.65
2022-09-16T18:09:08.528Z,1.67
2022-09-16T18:11:36.658Z,1.70
2022-09-16T18:14:05.569Z,1.88
2022-09-16T18:16:32.706Z,1.65
2022-09-16T18:19:01.465Z,2.00
2022-09-16T18:21:28.528Z,2.10
2022-09-16T18:24:02.413Z,1.65
2022-09-16T18:26:30.375Z,1.77
2022-09-16T18:29:12.833Z,1.50
2022-09-16T18:31:42.170Z,1.77
2022-09-16T18:34:09.052Z,1.45
2022-09-16T18:36:37.586Z,1.60
2022-09-16T18:39:05.645Z,1.40
2022-09-16T18:41:36.538Z,1.60
2022-09-16T18:44:07.382Z,1.50
2022-09-16T18:46:36.630Z,1.65
2022-09-16T18:49:04.124Z,2.03
2022-09-16T18:51:30.587Z,1.58
2022-09-16T18:54:00.750Z,1.30
2022-09-16T18:56:29.249Z,1.55
2022-09-16T18:59:20.515Z,1.38
2022-09-16T19:01:48.840Z,1.45
2022-09-16T19:04:18.293Z,1.30
2022-09-16T19:06:47.823Z,1.58
2022-09-16T19:09:16.710Z,1.50
2022-09-16T19:11:43.810Z,1.50
2022-09-16T19:14:13.923Z,1.67
2022-09-16T19:16:45.524Z,1.38
2022-09-16T19:19:14.759Z,1.38
2022-09-16T19:21:42.407Z,1.52
2022-09-16T19:24:14.344Z,1.50
2022-09-16T19:26:42.287Z,1.52
2022-09-16T19:29:09.856Z,1.85
2022-09-16T19:31:39.560Z,1.83
2022-09-16T19:34:06.792Z,2.05
2022-09-16T19:36:35.475Z,1.58
2022-09-16T19:39:03.256Z,1.27
2022-09-16T19:41:31.928Z,1.38
2022-09-16T19:44:01.207Z,1.65
2022-09-16T19:46:29.736Z,1.60
2022-09-16T19:48:56.507Z,1.80
2022-09-16T19:51:24.538Z,1.40
2022-09-16T19:53:52.571Z,1.80
2022-09-16T19:56:24.699Z,1.42
2022-09-16T19:58:52.959Z,1.48
2022-09-16T20:01:27.640Z,1.80
2022-09-16T20:03:54.802Z,1.98
2022-09-16T20:06:32.469Z,2.05
2022-09-16T20:09:00.992Z,2.00
2022-09-16T20:11:33.689Z,1.80
2022-09-16T20:14:03.313Z,1.80
2022-09-16T20:16:35.585Z,1.85
2022-09-16T20:19:07.254Z,1.80
2022-09-16T20:21:35.120Z,2.40
2022-09-16T20:24:05.659Z,2.10
2022-09-16T20:26:33.262Z,1.63
2022-09-16T20:29:00.190Z,2.25
2022-09-16T20:31:29.535Z,1.70
2022-09-16T20:33:56.035Z,1.92
2022-09-16T20:36:24.502Z,2.05
2022-09-16T20:38:52.394Z,1.88
2022-09-16T20:41:25.159Z,1.75
2022-09-16T20:43:52.453Z,1.75
2022-09-16T20:46:25.181Z,1.80
2022-09-16T20:48:54.469Z,1.75
2022-09-16T20:51:23.981Z,1.60
2022-09-16T20:54:01.764Z,1.90
2022-09-16T20:56:37.995Z,1.88
2022-09-16T20:59:07.418Z,1.60
2022-09-16T21:01:35.227Z,1.45
2022-09-16T21:04:04.765Z,1.83
2022-09-16T21:06:33.821Z,1.90
2022-09-16T21:09:03.966Z,1.40
2022-09-16T21:11:31.157Z,2.10
2022-09-16T21:14:08.571Z,1.73
2022-09-16T21:16:37.288Z,1.73
2022-09-16T21:19:06.612Z,1.42
2022-09-16T21:21:33.668Z,1.48
2022-09-16T21:24:01.309Z,1.48
2022-09-16T21:26:30.985Z,1.90
2022-09-16T21:29:00.313Z,1.60
2022-09-16T21:31:29.553Z,1.60
2022-09-16T21:33:56.828Z,1.67
2022-09-16T21:36:24.577Z,2.03
2022-09-16T21:38:51.642Z,1.80
2022-09-16T21:41:21.280Z,1.98
2022-09-16T21:43:55.427Z,1.88
2022-09-16T21:46:28.530Z,2.20
2022-09-16T21:49:01.996Z,2.08
2022-09-16T21:51:34.949Z,2.60
2022-09-16T21:54:06.760Z,2.10
2022-09-16T21:56:33.401Z,2.33
2022-09-16T21:59:00.234Z,1.98
2022-09-16T22:01:30.062Z,1.90
2022-09-16T22:04:21.573Z,2.40
2022-09-16T22:06:49.358Z,1.67
2022-09-16T22:09:18.150Z,1.67
2022-09-16T22:11:44.676Z,2.03
2022-09-16T22:14:11.314Z,1.85
2022-09-16T22:16:39.080Z,1.73
2022-09-16T22:19:12.309Z,1.80
2022-09-16T22:21:41.985Z,2.03
2022-09-16T22:24:09.447Z,1.55
2022-09-16T22:26:36.655Z,2.00
2022-09-16T22:29:03.609Z,1.77
2022-09-16T22:31:32.310Z,1.52
2022-09-16T22:34:01.189Z,1.42
2022-09-16T22:36:30.869Z,1.40
2022-09-16T22:39:04.292Z,1.30
2022-09-16T22:41:31.148Z,1.45
2022-09-16T22:43:57.617Z,1.52
2022-09-16T22:46:29.818Z,1.30
2022-09-16T22:48:57.992Z,1.58
2022-09-16T22:51:25.205Z,1.25
2022-09-16T22:53:51.691Z,1.27
2022-09-16T22:56:28.405Z,0.98
2022-09-16T22:58:56.947Z,1.08
2022-09-16T23:01:31.941Z,1.35
2022-09-16T23:04:01.678Z,1.13
2022-09-16T23:06:30.180Z,1.27
2022-09-16T23:08:57.114Z,1.33
2022-09-16T23:11:28.606Z,1.27
2022-09-16T23:13:56.449Z,1.10
2022-09-16T23:16:30.162Z,1.08
2022-09-16T23:18:58.821Z,0.90
2022-09-16T23:21:26.235Z,1.23
2022-09-16T23:23:56.114Z,0.95
2022-09-16T23:26:30.037Z,0.90
2022-09-16T23:28:58.876Z,1.58
2022-09-16T23:31:28.170Z,0.80
2022-09-16T23:33:55.182Z,0.85
2022-09-16T23:36:22.646Z,0.80
2022-09-16T23:38:49.300Z,0.52
2022-09-16T23:41:19.451Z,0.90
2022-09-16T23:43:47.149Z,0.90
2022-09-16T23:46:15.741Z,0.70
2022-09-16T23:48:44.142Z,0.70
2022-09-16T23:51:11.886Z,0.70
2022-09-16T23:53:39.501Z,0.90
2022-09-16T23:56:11.161Z,1.00
2022-09-16T23:58:37.951Z,0.80
